Airport ID:KN38
Update Time (UTC):02/08/2021 07:08
Wind Speed (Knots):8
Wind Direction (Magnetic):320
Temperature (°C):13
Dew Point (°C):12
Humidity (%):96
Altimeter (inHg):29.96
Density Altitude (Feet):
Visibility:10+
Clouds (Hundreds of feet):FEW011 FEW016
Present Weather:
METAR:METAR KN38 020705Z AUTO 32008KT 10SM FEW011 13/12 A2996 RMK AO2

The data displayed is for advisory purposes only and is not to be used for flight planning or operations.